createdAt,value
2019-04-28T00:01:07.508Z,1.07
2019-04-28T00:03:36.577Z,1.02
2019-04-28T00:06:05.666Z,0.70
2019-04-28T00:08:34.830Z,1.10
2019-04-28T00:11:04.367Z,0.90
2019-04-28T00:13:33.436Z,0.90
2019-04-28T00:16:02.711Z,0.80
2019-04-28T00:18:31.839Z,0.70
2019-04-28T00:21:29.263Z,0.90
2019-04-28T00:24:17.357Z,0.78
2019-04-28T00:27:11.724Z,0.82
2019-04-28T00:29:45.867Z,0.65
2019-04-28T00:32:11.940Z,0.80
2019-04-28T00:34:41.399Z,0.78
2019-04-28T00:37:32.736Z,0.80
2019-04-28T00:40:02.206Z,0.60
2019-04-28T00:42:31.576Z,0.60
2019-04-28T00:45:01.580Z,0.70
2019-04-28T00:47:31.252Z,0.85
2019-04-28T00:50:02.119Z,0.70
2019-04-28T00:52:31.978Z,0.72
2019-04-28T00:55:01.360Z,0.82
2019-04-28T00:57:30.970Z,1.00
2019-04-28T01:00:02.207Z,0.78
2019-04-28T01:02:48.419Z,0.72
2019-04-28T01:05:21.233Z,1.00
2019-04-28T01:07:51.100Z,0.82
2019-04-28T01:10:21.967Z,0.70
2019-04-28T01:12:51.060Z,0.80
2019-04-28T01:15:29.841Z,0.88
2019-04-28T01:18:05.986Z,0.85
2019-04-28T01:20:35.058Z,0.70
2019-04-28T01:23:04.166Z,0.90
2019-04-28T01:25:33.153Z,1.00
2019-04-28T01:28:02.130Z,0.90
2019-04-28T01:30:50.070Z,0.80
2019-04-28T01:33:26.271Z,0.78
2019-04-28T01:35:55.309Z,0.90
2019-04-28T01:38:24.307Z,0.75
2019-04-28T01:40:53.289Z,1.07
2019-04-28T01:43:22.357Z,0.80
2019-04-28T01:45:51.422Z,1.00
2019-04-28T01:48:20.510Z,0.80
2019-04-28T01:50:50.062Z,0.85
2019-04-28T01:53:19.900Z,0.90
2019-04-28T01:55:49.516Z,1.20
2019-04-28T01:58:20.428Z,0.80
2019-04-28T02:00:50.529Z,0.85
2019-04-28T02:03:20.592Z,0.90
2019-04-28T02:05:50.203Z,1.10
2019-04-28T02:08:20.264Z,0.90
2019-04-28T02:10:50.144Z,1.02
2019-04-28T02:13:19.897Z,1.10
2019-04-28T02:15:50.095Z,1.12
2019-04-28T02:18:19.950Z,1.30
2019-04-28T02:20:54.547Z,1.20
2019-04-28T02:23:27.385Z,1.12
2019-04-28T02:25:56.532Z,1.20
2019-04-28T02:28:25.589Z,1.17
2019-04-28T02:30:54.690Z,1.00
2019-04-28T02:33:23.619Z,0.80
2019-04-28T02:35:52.711Z,1.15
2019-04-28T02:38:21.703Z,0.70
2019-04-28T02:40:50.758Z,0.85
2019-04-28T02:43:20.896Z,0.82
2019-04-28T02:45:53.457Z,1.00
2019-04-28T02:48:24.831Z,1.02
2019-04-28T02:53:40.933Z,0.60
2019-04-28T02:56:11.286Z,0.90
2019-04-28T02:58:41.566Z,0.82
2019-04-28T03:01:21.456Z,1.05
2019-04-28T03:03:41.740Z,1.00
2019-04-28T03:06:10.963Z,0.70
2019-04-28T03:08:40.562Z,1.00
2019-04-28T03:11:10.662Z,0.65
2019-04-28T03:13:41.175Z,0.70
2019-04-28T03:16:10.978Z,0.62
2019-04-28T03:18:41.292Z,0.57
2019-04-28T03:21:11.490Z,0.50
2019-04-28T03:23:40.785Z,0.80
2019-04-28T03:26:31.913Z,0.80
2019-04-28T03:29:12.468Z,0.70
2019-04-28T03:32:30.734Z,0.60
2019-04-28T03:34:53.015Z,0.70
2019-04-28T03:37:23.499Z,0.47
2019-04-28T03:39:50.459Z,0.70
2019-04-28T03:42:21.535Z,0.68
2019-04-28T03:44:51.083Z,0.50
2019-04-28T03:47:21.405Z,0.70
2019-04-28T03:49:50.930Z,0.60
2019-04-28T03:52:21.326Z,0.75
2019-04-28T03:54:51.172Z,0.60
2019-04-28T03:57:21.473Z,0.55
2019-04-28T03:59:51.444Z,0.70
2019-04-28T04:02:23.692Z,0.70
2019-04-28T04:04:52.553Z,0.70
2019-04-28T04:07:22.152Z,0.62
2019-04-28T04:10:06.483Z,0.90
2019-04-28T04:13:00.996Z,0.70
2019-04-28T04:15:55.279Z,0.60
2019-04-28T04:18:33.685Z,0.85
2019-04-28T04:21:02.780Z,0.60
2019-04-28T04:23:31.846Z,0.55
2019-04-28T04:26:01.775Z,0.60
2019-04-28T04:28:31.211Z,1.00
2019-04-28T04:31:02.945Z,0.65
2019-04-28T04:33:31.294Z,0.60
2019-04-28T04:36:01.566Z,0.88
2019-04-28T04:38:31.353Z,0.95
2019-04-28T04:41:01.428Z,1.02
2019-04-28T04:43:31.313Z,0.98
2019-04-28T04:46:31.705Z,0.90
2019-04-28T04:49:01.007Z,0.72
2019-04-28T04:51:31.058Z,0.60
2019-04-28T04:54:01.127Z,0.90
2019-04-28T04:56:30.685Z,0.90
2019-04-28T04:59:02.209Z,1.00
2019-04-28T05:01:55.529Z,0.90
2019-04-28T05:04:34.612Z,1.07
2019-04-28T05:07:03.673Z,0.80
2019-04-28T05:09:32.674Z,0.80
2019-04-28T05:12:01.694Z,1.00
2019-04-28T05:14:30.699Z,1.05
2019-04-28T05:17:00.829Z,0.75
2019-04-28T05:19:30.004Z,1.15
2019-04-28T05:22:00.049Z,1.00
2019-04-28T05:24:54.386Z,1.22
2019-04-28T05:27:25.618Z,0.80
2019-04-28T05:29:56.864Z,0.88
2019-04-28T05:32:24.022Z,1.00
2019-04-28T05:34:53.059Z,1.00
2019-04-28T05:37:22.267Z,0.98
2019-04-28T05:39:52.538Z,1.12
2019-04-28T05:42:21.782Z,1.07
2019-04-28T05:44:50.780Z,1.37
2019-04-28T05:47:20.418Z,1.57
2019-04-28T05:50:00.207Z,1.02
2019-04-28T05:52:50.124Z,0.82
2019-04-28T05:55:23.485Z,1.20
2019-04-28T05:58:06.541Z,0.98
2019-04-28T06:00:57.718Z,0.90
2019-04-28T06:03:27.372Z,1.10
2019-04-28T06:05:57.132Z,1.15
2019-04-28T06:08:35.397Z,1.05
2019-04-28T06:11:23.639Z,1.10
2019-04-28T06:13:52.603Z,0.70
2019-04-28T06:16:22.142Z,1.00
2019-04-28T06:18:51.373Z,1.02
2019-04-28T06:21:20.507Z,0.93
2019-04-28T06:23:49.684Z,1.00
2019-04-28T06:26:18.672Z,1.30
2019-04-28T06:28:47.753Z,0.90
2019-04-28T06:31:16.665Z,0.98
2019-04-28T06:33:45.811Z,0.88
2019-04-28T06:36:14.815Z,1.10
2019-04-28T06:38:43.731Z,1.05
2019-04-28T06:41:12.807Z,1.00
2019-04-28T06:43:41.783Z,1.20
2019-04-28T06:46:10.956Z,1.30
2019-04-28T06:48:39.936Z,0.72
2019-04-28T06:51:08.985Z,1.10
2019-04-28T06:53:38.049Z,1.37
2019-04-28T06:56:07.119Z,1.10
2019-04-28T06:58:36.142Z,1.00
2019-04-28T07:01:05.272Z,1.10
2019-04-28T07:03:34.274Z,1.42
2019-04-28T07:06:04.270Z,1.57
2019-04-28T07:08:33.255Z,1.15
2019-04-28T07:11:02.270Z,0.90
2019-04-28T07:13:31.339Z,1.12
2019-04-28T07:16:00.352Z,1.30
2019-04-28T07:18:29.269Z,1.20
2019-04-28T07:21:23.471Z,1.20
2019-04-28T07:23:52.529Z,1.45
2019-04-28T07:26:21.585Z,0.90
2019-04-28T07:28:50.696Z,1.17
2019-04-28T07:31:21.331Z,1.42
2019-04-28T07:33:50.502Z,1.20
2019-04-28T07:36:19.627Z,1.30
2019-04-28T07:38:48.627Z,1.37
2019-04-28T07:41:17.693Z,1.30
2019-04-28T07:43:46.807Z,1.02
2019-04-28T07:46:15.883Z,1.20
2019-04-28T07:48:44.951Z,1.05
2019-04-28T07:51:13.876Z,1.20
2019-04-28T07:53:47.917Z,1.40
2019-04-28T07:56:17.055Z,1.10
2019-04-28T07:58:46.174Z,1.37
2019-04-28T08:01:15.251Z,1.20
2019-04-28T08:03:49.756Z,1.10
2019-04-28T08:06:15.101Z,1.60
2019-04-28T08:08:44.166Z,1.20
2019-04-28T08:11:13.220Z,1.30
2019-04-28T08:13:42.290Z,1.00
2019-04-28T08:16:11.346Z,1.17
2019-04-28T08:18:40.263Z,1.40
2019-04-28T08:21:09.239Z,1.00
2019-04-28T08:23:47.070Z,1.22
2019-04-28T08:26:08.798Z,1.00
2019-04-28T08:28:37.852Z,1.02
2019-04-28T08:31:07.656Z,1.00
2019-04-28T08:34:02.494Z,1.32
2019-04-28T08:36:29.276Z,1.00
2019-04-28T08:38:58.286Z,1.10
2019-04-28T08:41:27.402Z,1.10
2019-04-28T08:43:56.365Z,1.37
2019-04-28T08:46:25.357Z,1.05
2019-04-28T08:48:54.435Z,0.98
2019-04-28T08:51:23.503Z,1.27
2019-04-28T08:53:52.557Z,0.95
2019-04-28T08:56:21.563Z,1.10
2019-04-28T08:58:50.560Z,1.00
2019-04-28T09:01:19.615Z,1.10
2019-04-28T09:03:48.622Z,0.93
2019-04-28T09:06:17.698Z,1.22
2019-04-28T09:08:46.743Z,1.15
2019-04-28T09:11:15.830Z,1.00
2019-04-28T09:13:44.904Z,0.90
2019-04-28T09:16:13.889Z,1.40
2019-04-28T09:18:42.956Z,1.17
2019-04-28T09:21:12.067Z,1.25
2019-04-28T09:23:41.255Z,1.20
2019-04-28T09:26:10.313Z,0.82
2019-04-28T09:28:39.411Z,1.57
2019-04-28T09:31:08.500Z,0.90
2019-04-28T09:33:37.427Z,1.07
2019-04-28T09:36:06.435Z,1.10
2019-04-28T09:38:35.343Z,0.90
2019-04-28T09:41:04.336Z,0.70
2019-04-28T09:43:51.201Z,1.10
2019-04-28T09:46:23.411Z,0.80
2019-04-28T09:48:52.494Z,1.02
2019-04-28T09:51:21.466Z,0.80
2019-04-28T09:53:50.480Z,0.80
2019-04-28T09:56:19.539Z,1.02
2019-04-28T09:58:48.603Z,1.10
2019-04-28T10:01:17.593Z,1.42
2019-04-28T10:03:46.567Z,2.52
2019-04-28T10:06:15.675Z,1.00
2019-04-28T10:08:44.762Z,1.00
2019-04-28T10:11:13.744Z,0.80
2019-04-28T10:13:42.784Z,1.20
2019-04-28T10:16:11.898Z,1.07
2019-04-28T10:18:40.958Z,0.98
2019-04-28T10:21:10.015Z,1.12
2019-04-28T10:23:38.937Z,1.50
2019-04-28T10:26:08.015Z,1.00
2019-04-28T10:28:37.002Z,1.00
2019-04-28T10:31:07.533Z,0.75
2019-04-28T10:33:38.234Z,0.72
2019-04-28T10:36:07.359Z,1.15
2019-04-28T10:38:37.886Z,1.00
2019-04-28T10:41:20.051Z,1.20
2019-04-28T10:43:49.175Z,1.30
2019-04-28T10:46:18.171Z,1.10
2019-04-28T10:48:47.291Z,0.90
2019-04-28T10:51:16.339Z,0.90
2019-04-28T10:53:45.292Z,1.10
2019-04-28T10:56:14.268Z,1.10
2019-04-28T10:58:45.018Z,0.93
2019-04-28T11:01:14.014Z,1.35
2019-04-28T11:03:45.063Z,0.80
2019-04-28T11:06:14.079Z,0.95
2019-04-28T11:09:05.533Z,0.90
2019-04-28T11:11:34.673Z,1.00
2019-04-28T11:14:04.022Z,1.15
2019-04-28T11:16:35.996Z,0.90
2019-04-28T11:19:06.130Z,1.02
2019-04-28T11:21:35.198Z,1.00
2019-04-28T11:24:04.462Z,0.82
2019-04-28T11:26:33.623Z,1.05
2019-04-28T11:29:03.092Z,0.90
2019-04-28T11:31:32.223Z,0.90
2019-04-28T11:34:22.587Z,0.90
2019-04-28T11:36:51.515Z,0.90
2019-04-28T11:39:25.917Z,1.22
2019-04-28T11:41:55.133Z,1.15
2019-04-28T11:44:24.190Z,0.90
2019-04-28T11:46:53.334Z,0.90
2019-04-28T11:49:22.368Z,0.88
2019-04-28T11:51:51.431Z,0.90
2019-04-28T11:54:20.543Z,1.70
2019-04-28T11:56:49.677Z,1.27
2019-04-28T11:59:18.590Z,1.32
2019-04-28T12:01:47.683Z,1.00
2019-04-28T12:04:17.917Z,1.00
2019-04-28T12:06:46.968Z,1.10
2019-04-28T12:09:24.561Z,0.90
2019-04-28T12:11:54.392Z,1.00
2019-04-28T12:14:31.115Z,1.00
2019-04-28T12:17:28.269Z,1.07
2019-04-28T12:20:10.573Z,0.90
2019-04-28T12:22:39.604Z,1.05
2019-04-28T12:25:08.871Z,1.40
2019-04-28T12:27:38.044Z,0.98
2019-04-28T12:30:07.526Z,1.30
2019-04-28T12:32:36.756Z,1.10
2019-04-28T12:35:05.979Z,0.80
2019-04-28T12:37:35.216Z,0.80
2019-04-28T12:40:04.691Z,0.88
2019-04-28T12:42:33.967Z,0.88
2019-04-28T12:45:03.099Z,1.10
2019-04-28T12:47:32.223Z,1.55
2019-04-28T12:50:17.322Z,1.10
2019-04-28T12:52:46.460Z,1.00
2019-04-28T12:55:15.645Z,1.10
2019-04-28T12:57:44.678Z,0.80
2019-04-28T13:00:26.743Z,0.80
2019-04-28T13:03:13.863Z,0.85
2019-04-28T13:05:44.616Z,1.00
2019-04-28T13:08:13.815Z,1.12
2019-04-28T13:10:42.976Z,1.00
2019-04-28T13:13:12.108Z,0.90
2019-04-28T13:15:41.327Z,1.32
2019-04-28T13:18:10.403Z,1.10
2019-04-28T13:20:39.475Z,0.95
2019-04-28T13:23:08.556Z,0.85
2019-04-28T13:25:37.754Z,1.10
2019-04-28T13:28:06.909Z,1.00
2019-04-28T13:30:36.087Z,1.00
2019-04-28T13:33:05.209Z,1.00
2019-04-28T13:35:34.389Z,0.90
2019-04-28T13:38:03.455Z,1.15
2019-04-28T13:40:34.218Z,1.25
2019-04-28T13:43:03.293Z,1.30
2019-04-28T13:45:32.449Z,1.10
2019-04-28T13:48:01.605Z,0.95
2019-04-28T13:50:36.236Z,1.30
2019-04-28T13:53:06.231Z,1.30
2019-04-28T13:55:54.733Z,1.00
2019-04-28T13:58:27.388Z,1.10
2019-04-28T14:01:11.277Z,1.00
2019-04-28T14:04:02.516Z,1.25
2019-04-28T14:06:32.341Z,1.37
2019-04-28T14:09:01.429Z,1.40
2019-04-28T14:11:30.644Z,1.67
2019-04-28T14:13:59.767Z,1.60
2019-04-28T14:16:28.858Z,1.85
2019-04-28T14:18:57.943Z,1.62
2019-04-28T14:21:27.078Z,1.70
2019-04-28T14:23:56.243Z,1.90
2019-04-28T14:26:25.366Z,1.77
2019-04-28T14:28:54.448Z,1.52
2019-04-28T14:31:23.614Z,1.72
2019-04-28T14:33:52.709Z,1.80
2019-04-28T14:36:21.825Z,1.62
2019-04-28T14:38:50.941Z,2.58
2019-04-28T14:41:20.014Z,1.80
2019-04-28T14:43:49.033Z,1.50
2019-04-28T14:46:18.008Z,1.40
2019-04-28T14:48:47.089Z,1.60
2019-04-28T14:51:16.295Z,1.40
2019-04-28T14:53:45.246Z,1.22
2019-04-28T14:56:14.403Z,1.22
2019-04-28T14:58:43.417Z,1.42
2019-04-28T15:01:31.546Z,1.25
2019-04-28T15:04:02.806Z,1.37
2019-04-28T15:06:37.824Z,1.30
2019-04-28T15:09:26.782Z,1.42
2019-04-28T15:12:02.103Z,1.40
2019-04-28T15:14:31.120Z,1.40
2019-04-28T15:17:00.233Z,2.00
2019-04-28T15:19:29.201Z,1.42
2019-04-28T15:21:58.261Z,1.37
2019-04-28T15:24:27.399Z,1.30
2019-04-28T15:26:56.395Z,1.37
2019-04-28T15:29:25.397Z,1.60
2019-04-28T15:31:54.397Z,1.30
2019-04-28T15:34:23.501Z,1.90
2019-04-28T15:36:52.699Z,1.57
2019-04-28T15:39:21.674Z,1.57
2019-04-28T15:41:50.628Z,1.70
2019-04-28T15:44:19.676Z,1.40
2019-04-28T15:46:48.734Z,1.65
2019-04-28T15:49:17.678Z,1.37
2019-04-28T15:51:46.658Z,1.70
2019-04-28T15:54:15.685Z,1.55
2019-04-28T15:56:48.954Z,2.05
2019-04-28T15:59:18.918Z,1.90
2019-04-28T16:01:47.990Z,2.10
2019-04-28T16:04:18.485Z,2.05
2019-04-28T16:06:47.750Z,2.00
2019-04-28T16:09:16.742Z,2.30
2019-04-28T16:11:45.851Z,1.60
2019-04-28T16:14:14.858Z,1.87
2019-04-28T16:16:43.947Z,1.72
2019-04-28T16:19:13.101Z,1.70
2019-04-28T16:21:42.201Z,2.00
2019-04-28T16:24:11.250Z,1.92
2019-04-28T16:26:40.292Z,2.30
2019-04-28T16:29:09.354Z,2.15
2019-04-28T16:31:38.387Z,1.75
2019-04-28T16:34:07.373Z,2.08
2019-04-28T16:36:36.331Z,1.82
2019-04-28T16:39:09.352Z,2.20
2019-04-28T16:41:39.906Z,1.98
2019-04-28T16:44:11.190Z,2.45
2019-04-28T16:46:40.253Z,2.00
2019-04-28T16:49:09.338Z,2.30
2019-04-28T16:51:38.382Z,1.87
2019-04-28T16:54:07.489Z,1.90
2019-04-28T16:56:42.838Z,2.00
2019-04-28T16:59:34.174Z,2.02
2019-04-28T17:02:14.060Z,1.92
2019-04-28T17:04:43.015Z,1.95
2019-04-28T17:07:12.270Z,1.80
2019-04-28T17:09:41.184Z,2.20
2019-04-28T17:12:10.394Z,2.08
2019-04-28T17:14:39.519Z,1.80
2019-04-28T17:17:08.696Z,1.70
2019-04-28T17:19:37.847Z,1.57
2019-04-28T17:22:07.049Z,1.92
2019-04-28T17:24:36.113Z,1.70
2019-04-28T17:27:05.226Z,1.65
2019-04-28T17:29:34.290Z,1.62
2019-04-28T17:32:03.312Z,1.67
2019-04-28T17:34:32.488Z,1.65
2019-04-28T17:37:01.652Z,1.77
2019-04-28T17:39:31.773Z,2.58
2019-04-28T17:42:00.706Z,1.98
2019-04-28T17:44:29.910Z,2.27
2019-04-28T17:46:59.099Z,1.80
2019-04-28T17:49:33.458Z,2.02
2019-04-28T17:52:02.676Z,2.10
2019-04-28T17:54:31.817Z,1.50
2019-04-28T17:57:01.055Z,1.95
2019-04-28T17:59:30.059Z,1.60
2019-04-28T18:02:17.282Z,1.25
2019-04-28T18:05:05.583Z,1.65
2019-04-28T18:07:36.724Z,1.80
2019-04-28T18:10:07.918Z,1.60
2019-04-28T18:12:37.100Z,1.50
2019-04-28T18:15:18.227Z,1.75
2019-04-28T18:18:04.172Z,1.60
2019-04-28T18:20:33.327Z,1.72
2019-04-28T18:23:02.395Z,1.85
2019-04-28T18:25:31.473Z,1.90
2019-04-28T18:28:00.627Z,1.87
2019-04-28T18:30:32.303Z,1.57
2019-04-28T18:33:20.525Z,1.67
2019-04-28T18:35:52.885Z,1.90
2019-04-28T18:38:35.077Z,2.17
2019-04-28T18:41:12.118Z,1.85
2019-04-28T18:44:00.198Z,2.12
2019-04-28T18:46:30.462Z,2.00
2019-04-28T18:48:59.478Z,1.70
2019-04-28T18:51:28.602Z,2.20
2019-04-28T18:53:57.692Z,2.02
2019-04-28T18:56:26.785Z,2.27
2019-04-28T18:58:55.819Z,2.00
2019-04-28T19:01:32.617Z,2.10
2019-04-28T19:04:01.734Z,2.33
2019-04-28T19:06:30.829Z,2.02
2019-04-28T19:09:06.507Z,2.10
2019-04-28T19:11:48.383Z,2.10
2019-04-28T19:14:21.323Z,2.30
2019-04-28T19:17:12.477Z,2.12
2019-04-28T19:19:42.184Z,1.82
2019-04-28T19:22:11.207Z,1.92
2019-04-28T19:24:40.369Z,2.00
2019-04-28T19:27:09.319Z,2.30
2019-04-28T19:29:38.427Z,2.10
2019-04-28T19:32:07.592Z,2.00
2019-04-28T19:34:36.660Z,1.70
2019-04-28T19:37:05.969Z,2.20
2019-04-28T19:39:35.227Z,2.47
2019-04-28T19:42:04.601Z,1.67
2019-04-28T19:44:33.711Z,2.10
2019-04-28T19:47:02.819Z,1.85
2019-04-28T19:49:31.803Z,2.20
2019-04-28T19:52:00.895Z,2.12
2019-04-28T19:54:33.786Z,1.90
2019-04-28T19:57:21.927Z,2.05
2019-04-28T20:00:09.025Z,3.12
2019-04-28T20:02:38.231Z,3.70
2019-04-28T20:05:07.372Z,4.17
2019-04-28T20:07:36.515Z,3.35
2019-04-28T20:10:06.132Z,3.20
2019-04-28T20:12:35.191Z,3.02
2019-04-28T20:15:04.787Z,2.60
2019-04-28T20:17:33.847Z,2.55
2019-04-28T20:20:02.930Z,2.33
2019-04-28T20:22:32.282Z,2.50
2019-04-28T20:25:01.291Z,2.45
2019-04-28T20:27:30.424Z,2.12
2019-04-28T20:29:59.612Z,2.20
2019-04-28T20:32:30.267Z,2.02
2019-04-28T20:34:59.255Z,2.30
2019-04-28T20:37:33.104Z,2.10
2019-04-28T20:40:06.487Z,2.37
2019-04-28T20:42:42.922Z,2.10
2019-04-28T20:45:13.801Z,2.20
2019-04-28T20:47:42.956Z,2.22
2019-04-28T20:50:12.292Z,2.85
2019-04-28T20:52:41.313Z,2.58
2019-04-28T20:55:10.499Z,2.30
2019-04-28T20:57:39.526Z,2.55
2019-04-28T21:00:09.744Z,2.12
2019-04-28T21:02:38.724Z,2.47
2019-04-28T21:05:07.812Z,2.55
2019-04-28T21:07:36.875Z,2.47
2019-04-28T21:10:06.283Z,2.33
2019-04-28T21:12:35.423Z,2.30
2019-04-28T21:15:04.925Z,2.47
2019-04-28T21:17:33.947Z,2.67
2019-04-28T21:20:03.026Z,2.52
2019-04-28T21:22:32.050Z,2.52
2019-04-28T21:25:01.079Z,2.62
2019-04-28T21:27:30.203Z,2.05
2019-04-28T21:29:59.122Z,2.80
2019-04-28T21:32:28.219Z,2.45
2019-04-28T21:34:57.237Z,2.27
2019-04-28T21:37:26.322Z,2.00
2019-04-28T21:39:55.376Z,2.60
2019-04-28T21:42:26.755Z,2.25
2019-04-28T21:45:16.430Z,2.10
2019-04-28T21:47:45.607Z,2.17
2019-04-28T21:50:14.661Z,2.40
2019-04-28T21:52:43.683Z,1.95
2019-04-28T21:55:12.780Z,1.87
2019-04-28T21:57:41.783Z,2.10
2019-04-28T22:00:14.165Z,2.10
2019-04-28T22:02:43.255Z,2.08
2019-04-28T22:05:12.431Z,2.17
2019-04-28T22:07:41.347Z,1.72
2019-04-28T22:10:10.527Z,1.98
2019-04-28T22:12:39.695Z,2.05
2019-04-28T22:15:08.852Z,2.02
2019-04-28T22:17:37.872Z,1.80
2019-04-28T22:20:07.428Z,2.10
2019-04-28T22:22:36.482Z,2.10
2019-04-28T22:25:11.203Z,1.90
2019-04-28T22:27:41.857Z,1.65
2019-04-28T22:30:12.304Z,1.77
2019-04-28T22:32:41.368Z,1.67
2019-04-28T22:35:10.677Z,2.35
2019-04-28T22:37:39.755Z,2.25
2019-04-28T22:40:08.799Z,2.20
2019-04-28T22:42:37.811Z,1.90
2019-04-28T22:45:07.175Z,1.90
2019-04-28T22:47:36.109Z,2.22
2019-04-28T22:50:07.159Z,1.75
2019-04-28T22:52:36.224Z,2.08
2019-04-28T22:55:13.627Z,1.85
2019-04-28T22:58:00.320Z,1.80
2019-04-28T23:00:54.789Z,1.92
2019-04-28T23:03:29.977Z,1.98
2019-04-28T23:05:59.021Z,2.30
2019-04-28T23:08:28.013Z,2.22
2019-04-28T23:10:56.989Z,1.70
2019-04-28T23:13:25.904Z,1.80
2019-04-28T23:15:54.966Z,1.87
2019-04-28T23:18:24.162Z,1.77
2019-04-28T23:20:56.500Z,1.92
2019-04-28T23:23:25.555Z,1.90
2019-04-28T23:25:54.601Z,1.85
2019-04-28T23:28:23.679Z,1.80
2019-04-28T23:30:52.745Z,2.10
2019-04-28T23:33:21.904Z,2.08
2019-04-28T23:35:50.981Z,1.92
2019-04-28T23:38:19.962Z,2.00
2019-04-28T23:41:08.017Z,1.90
2019-04-28T23:43:37.249Z,1.87
2019-04-28T23:46:06.375Z,1.75
2019-04-28T23:48:35.566Z,1.90
2019-04-28T23:51:18.482Z,1.60
2019-04-28T23:53:59.021Z,2.20
2019-04-28T23:56:28.088Z,2.33
2019-04-28T23:58:57.058Z,2.10
